createdAt,value
2023-02-13T00:01:51.859Z,5.20
2023-02-13T00:06:39.752Z,5.20
2023-02-13T00:11:27.415Z,5.20
2023-02-13T00:16:17.609Z,5.20
2023-02-13T00:21:06.441Z,5.20
2023-02-13T00:25:51.530Z,5.20
2023-02-13T00:30:38.782Z,5.20
2023-02-13T00:35:27.787Z,5.20
2023-02-13T00:40:15.909Z,5.20
2023-02-13T00:45:05.549Z,5.10
2023-02-13T00:49:50.547Z,5.10
2023-02-13T00:54:38.716Z,5.10
2023-02-13T00:59:28.834Z,5.10
2023-02-13T01:04:21.331Z,5.10
2023-02-13T01:09:06.568Z,5.00
2023-02-13T01:13:52.400Z,5.10
2023-02-13T01:18:38.202Z,5.10
2023-02-13T01:23:30.540Z,5.10
2023-02-13T01:28:15.949Z,5.10
2023-02-13T01:33:02.067Z,4.90
2023-02-13T01:37:51.095Z,5.20
2023-02-13T01:42:39.214Z,5.10
2023-02-13T01:47:30.481Z,5.00
2023-02-13T01:52:18.462Z,5.00
2023-02-13T01:57:08.061Z,5.10
2023-02-13T02:01:52.359Z,5.10
2023-02-13T02:06:43.162Z,5.10
2023-02-13T02:11:33.663Z,5.10
2023-02-13T02:16:17.168Z,5.20
2023-02-13T02:21:51.496Z,5.00
2023-02-13T02:27:18.258Z,5.00
2023-02-13T02:32:37.023Z,5.00
2023-02-13T02:37:34.666Z,5.00
2023-02-13T02:42:44.223Z,5.00
2023-02-13T02:47:51.589Z,4.90
2023-02-13T02:52:55.598Z,4.90
2023-02-13T02:58:21.862Z,4.90
2023-02-13T03:03:42.312Z,4.90
2023-02-13T03:08:39.858Z,4.90
2023-02-13T03:13:42.068Z,4.90
2023-02-13T03:18:53.263Z,4.90
2023-02-13T03:23:48.850Z,4.90
2023-02-13T03:29:05.852Z,4.90
2023-02-13T03:34:05.351Z,4.80
2023-02-13T03:38:58.701Z,4.90
2023-02-13T03:43:48.788Z,4.90
2023-02-13T03:48:54.293Z,4.80
2023-02-13T03:53:43.174Z,4.80
2023-02-13T03:58:57.316Z,4.70
2023-02-13T04:03:47.750Z,4.80
2023-02-13T04:08:33.168Z,4.60
2023-02-13T04:13:27.845Z,4.70
2023-02-13T04:18:28.873Z,4.70
2023-02-13T04:23:13.903Z,4.80
2023-02-13T04:28:00.288Z,4.70
2023-02-13T04:32:53.003Z,4.70
2023-02-13T04:37:36.366Z,4.60
2023-02-13T04:42:25.933Z,4.70
2023-02-13T04:47:12.359Z,4.60
2023-02-13T04:52:04.798Z,4.60
2023-02-13T04:56:48.211Z,4.60
2023-02-13T05:01:37.515Z,4.50
2023-02-13T05:06:27.100Z,4.50
2023-02-13T05:11:14.810Z,4.60
2023-02-13T05:16:00.281Z,4.60
2023-02-13T05:21:09.639Z,4.50
2023-02-13T05:25:52.930Z,4.40
2023-02-13T05:30:40.699Z,4.50
2023-02-13T05:35:29.204Z,4.50
2023-02-13T05:40:19.009Z,4.50
2023-02-13T05:45:05.957Z,4.50
2023-02-13T05:49:53.851Z,4.50
2023-02-13T05:54:42.898Z,4.60
2023-02-13T05:59:28.444Z,4.50
2023-02-13T06:04:17.620Z,4.50
2023-02-13T06:09:04.808Z,4.60
2023-02-13T06:13:57.377Z,4.50
2023-02-13T06:18:41.324Z,4.40
2023-02-13T06:23:30.894Z,4.50
2023-02-13T06:28:18.215Z,4.50
2023-02-13T06:33:03.738Z,4.30
2023-02-13T06:37:53.120Z,4.40
2023-02-13T06:42:43.543Z,4.40
2023-02-13T06:47:31.553Z,4.40
2023-02-13T06:52:18.191Z,4.50
2023-02-13T06:57:05.042Z,4.40
2023-02-13T07:01:54.268Z,4.40
2023-02-13T07:06:41.483Z,4.40
2023-02-13T07:11:26.587Z,4.50
2023-02-13T07:16:13.967Z,4.30
2023-02-13T07:21:02.751Z,4.50
2023-02-13T07:25:54.917Z,4.50
2023-02-13T07:30:41.308Z,4.50
2023-02-13T07:35:30.952Z,4.60
2023-02-13T07:40:16.389Z,4.60
2023-02-13T07:45:09.462Z,4.60
2023-02-13T07:49:54.918Z,4.70
2023-02-13T07:54:47.744Z,4.70
2023-02-13T07:59:47.373Z,4.80
2023-02-13T08:04:35.122Z,4.80
2023-02-13T08:09:40.985Z,4.80
2023-02-13T08:14:25.376Z,4.90
2023-02-13T08:19:14.627Z,4.80
2023-02-13T08:24:02.575Z,4.90
2023-02-13T08:28:47.806Z,5.10
2023-02-13T08:33:37.226Z,5.00
2023-02-13T08:38:26.694Z,5.00
2023-02-13T08:43:14.552Z,5.20
2023-02-13T08:48:03.859Z,5.20
2023-02-13T08:52:49.084Z,5.10
2023-02-13T08:57:37.498Z,5.00
2023-02-13T09:02:31.394Z,5.20
2023-02-13T09:07:14.852Z,5.20
2023-02-13T09:12:01.381Z,5.20
2023-02-13T09:16:50.989Z,5.20
2023-02-13T09:21:38.224Z,5.20
2023-02-13T09:26:24.648Z,5.40
2023-02-13T09:31:19.451Z,5.40
2023-02-13T09:36:06.540Z,5.50
2023-02-13T09:40:55.782Z,5.60
2023-02-13T09:45:59.956Z,5.70
2023-02-13T09:51:02.194Z,5.70
2023-02-13T09:56:00.383Z,5.80
2023-02-13T10:00:52.870Z,5.90
2023-02-13T10:05:57.298Z,6.10
2023-02-13T10:11:00.686Z,6.30
2023-02-13T10:15:59.839Z,6.50
2023-02-13T10:20:55.741Z,6.40
2023-02-13T10:25:59.099Z,6.60
2023-02-13T10:30:54.620Z,6.70
2023-02-13T10:36:00.602Z,7.30
2023-02-13T10:41:05.726Z,7.10
2023-02-13T10:46:10.111Z,7.30
2023-02-13T10:51:02.856Z,7.10
2023-02-13T10:56:02.891Z,6.80
2023-02-13T11:01:03.672Z,6.90
2023-02-13T11:05:55.182Z,7.00
2023-02-13T11:10:41.703Z,6.90
2023-02-13T11:15:33.532Z,7.10
2023-02-13T11:20:34.413Z,7.10
2023-02-13T11:25:24.441Z,7.40
2023-02-13T11:30:39.520Z,7.40
2023-02-13T11:35:32.188Z,7.70
2023-02-13T11:40:33.109Z,7.90
2023-02-13T11:45:25.900Z,7.40
2023-02-13T11:50:26.011Z,7.70
2023-02-13T11:55:32.291Z,7.70
2023-02-13T12:00:45.775Z,7.70
2023-02-13T12:05:34.576Z,7.70
2023-02-13T12:10:24.478Z,7.70
2023-02-13T12:15:18.821Z,7.80
2023-02-13T12:20:04.528Z,7.70
2023-02-13T12:25:21.161Z,7.80
2023-02-13T12:30:40.190Z,7.80
2023-02-13T12:35:42.064Z,7.70
2023-02-13T12:40:55.939Z,7.60
2023-02-13T12:45:57.378Z,7.70
2023-02-13T12:51:00.329Z,7.70
2023-02-13T12:56:05.851Z,7.60
2023-02-13T13:01:03.626Z,7.60
2023-02-13T13:06:12.389Z,7.70
2023-02-13T13:11:16.988Z,7.50
2023-02-13T13:16:07.044Z,7.20
2023-02-13T13:21:18.303Z,7.00
2023-02-13T13:26:26.296Z,7.20
2023-02-13T13:31:14.244Z,7.60
2023-02-13T13:36:06.606Z,7.80
2023-02-13T13:40:56.511Z,7.80
2023-02-13T13:45:51.436Z,8.00
2023-02-13T13:50:43.635Z,7.90
2023-02-13T13:56:05.924Z,7.20
2023-02-13T14:01:20.321Z,6.50
2023-02-13T14:06:07.264Z,6.40
2023-02-13T14:11:14.982Z,6.20
2023-02-13T14:16:02.711Z,6.30
2023-02-13T14:20:52.856Z,6.30
2023-02-13T14:25:36.386Z,6.10
2023-02-13T14:30:30.662Z,6.00
2023-02-13T14:35:22.573Z,6.10
2023-02-13T14:40:46.373Z,6.10
2023-02-13T14:45:50.445Z,6.00
2023-02-13T14:50:47.498Z,6.10
2023-02-13T14:55:43.353Z,6.10
2023-02-13T15:00:32.134Z,6.20
2023-02-13T15:05:22.198Z,6.00
2023-02-13T15:10:39.135Z,5.90
2023-02-13T15:15:33.213Z,5.70
2023-02-13T15:20:32.410Z,5.40
2023-02-13T15:25:26.988Z,5.40
2023-02-13T15:30:24.591Z,5.40
2023-02-13T15:35:26.235Z,5.30
2023-02-13T15:40:18.082Z,5.20
2023-02-13T15:45:05.840Z,5.10
2023-02-13T15:49:55.523Z,5.00
2023-02-13T15:54:56.073Z,5.00
2023-02-13T15:59:44.018Z,4.90
2023-02-13T16:04:36.871Z,4.90
2023-02-13T16:09:27.168Z,4.90
2023-02-13T16:14:24.164Z,4.70
2023-02-13T16:19:46.461Z,4.70
2023-02-13T16:24:34.634Z,4.70
2023-02-13T16:29:26.776Z,4.70
2023-02-13T16:34:24.810Z,4.60
2023-02-13T16:39:27.080Z,4.50
2023-02-13T16:44:32.649Z,4.50
2023-02-13T16:49:23.309Z,4.50
2023-02-13T16:54:26.478Z,4.50
2023-02-13T16:59:32.127Z,4.50
2023-02-13T17:04:22.250Z,4.50
2023-02-13T17:09:05.767Z,4.30
2023-02-13T17:13:55.221Z,4.40
2023-02-13T17:18:42.638Z,4.40
2023-02-13T17:23:28.077Z,4.40
2023-02-13T17:28:22.686Z,4.30
2023-02-13T17:33:07.967Z,4.30
2023-02-13T17:37:55.896Z,4.30
2023-02-13T17:42:44.411Z,4.30
2023-02-13T17:47:31.437Z,4.30
2023-02-13T17:52:21.458Z,4.30
2023-02-13T17:57:06.370Z,4.30
2023-02-13T18:01:52.493Z,4.30
2023-02-13T18:06:45.093Z,4.30
2023-02-13T18:11:28.601Z,4.30
2023-02-13T18:16:17.527Z,4.30
2023-02-13T18:21:07.148Z,4.30
2023-02-13T18:25:52.537Z,4.40
2023-02-13T18:30:42.496Z,4.40
2023-02-13T18:35:32.778Z,4.30
2023-02-13T18:40:17.623Z,4.30
2023-02-13T18:45:07.588Z,4.40
2023-02-13T18:49:53.625Z,4.40
2023-02-13T18:54:41.667Z,4.40
2023-02-13T18:59:30.951Z,4.30
2023-02-13T19:04:16.418Z,4.40
2023-02-13T19:09:02.952Z,4.30
2023-02-13T19:14:00.562Z,4.40
2023-02-13T19:19:00.741Z,4.40
2023-02-13T19:23:44.159Z,4.30
2023-02-13T19:28:33.753Z,4.30
2023-02-13T19:33:21.651Z,4.40
2023-02-13T19:38:11.462Z,4.30
2023-02-13T19:42:56.793Z,4.30
2023-02-13T19:47:48.235Z,4.30
2023-02-13T19:52:37.396Z,4.30
2023-02-13T19:57:21.685Z,4.30
2023-02-13T20:02:21.672Z,4.30
2023-02-13T20:07:12.411Z,4.20
2023-02-13T20:12:05.467Z,4.10
2023-02-13T20:16:51.075Z,4.20
2023-02-13T20:21:35.828Z,4.20
2023-02-13T20:26:25.327Z,4.30
2023-02-13T20:31:29.571Z,4.30
2023-02-13T20:36:21.279Z,4.30
2023-02-13T20:41:19.771Z,4.20
2023-02-13T20:46:10.001Z,4.20
2023-02-13T20:51:01.008Z,4.20
2023-02-13T20:55:44.500Z,4.20
2023-02-13T21:00:36.939Z,4.20
2023-02-13T21:05:20.617Z,4.20
2023-02-13T21:10:10.303Z,4.20
2023-02-13T21:14:56.725Z,4.20
2023-02-13T21:19:45.322Z,4.20
2023-02-13T21:24:38.094Z,4.30
2023-02-13T21:29:36.215Z,4.40
2023-02-13T21:34:28.815Z,4.20
2023-02-13T21:39:14.877Z,4.20
2023-02-13T21:44:01.215Z,4.20
2023-02-13T21:48:52.526Z,4.20
2023-02-13T21:53:40.500Z,4.20
2023-02-13T21:58:29.979Z,4.10
2023-02-13T22:03:13.433Z,4.10
2023-02-13T22:08:18.445Z,4.20
2023-02-13T22:13:25.637Z,4.20
2023-02-13T22:18:11.314Z,4.20
2023-02-13T22:23:01.217Z,4.20
2023-02-13T22:27:49.330Z,4.10
2023-02-13T22:32:34.681Z,4.10
2023-02-13T22:37:21.654Z,4.10
2023-02-13T22:42:05.141Z,4.10
2023-02-13T22:46:58.072Z,4.10
2023-02-13T22:51:47.912Z,4.00
2023-02-13T22:56:34.467Z,4.00
2023-02-13T23:01:21.232Z,4.20
2023-02-13T23:06:17.464Z,4.10
2023-02-13T23:11:35.325Z,4.00
2023-02-13T23:16:20.204Z,4.00
2023-02-13T23:21:21.880Z,4.00
2023-02-13T23:26:14.734Z,4.00
2023-02-13T23:30:58.578Z,4.00
2023-02-13T23:35:44.184Z,3.90
2023-02-13T23:40:36.747Z,4.00
2023-02-13T23:45:23.996Z,4.00
2023-02-13T23:50:11.024Z,4.00
2023-02-13T23:55:01.128Z,4.00
2023-02-13T23:59:48.956Z,3.90
